Tsuruoka, Japan
Current Conditions -  °F | °C
As of 11:00 AM on Wednesday 22 Oct 2014 (Local Time) from RJSY Reporting Station
Broken Clouds Broken Clouds  
Wind Chill: 55°   Ceiling: 13000
Heat Index: 55°   Visibility: 6mi
Dew Point: 39°   Wind: 7mph
Humidity: 54%   Direction: 350°N
Pressure: 30"   Gusts: NA
Location:  38.73°N, 139.82°E
Report Text: RJSY 220200Z 35006KT 300V040 9999 FEW020 BKN130 BKN180 13/04 Q1016
Loading
Personal Weather Stations






























Interactive Weather Map
Tropical Storm Tracking
New forecast layout! Learn more

10-Day Weather Forecast

Advertisements
Track Severe Weather on mobile